Startpagina
METAR-TAF:

METAR-TAF

Vliegvelden :

Luchthaven Odessa

Odessa, Oekraïne

breedte: 46-26N, lengte: 030-46E, hoogte: 42 m

Actueel weer

Dit bericht is 32 minuten geleden gemaakt, om 20:30 UTC
Weinig wind
Temperatuur 14°C
Vochtigheid 72%
Druk 1021 hPa
Zicht 10 km of meer
geen wolken onder 1500 m en geen cumulonimbus

METAR: UKOO 222030Z 00000MPS CAVOK 14/09 Q1021 R34/090060 NOSIG

Tijdstip: 00:02 (21:02 UTC)

Verwachting

Dit bericht is 3 uur en het 57 minuten geleden gemaakt, om 17:05 UTC
Verwachting geldig van 22 om 18 UTC tot 23 om 18 UTC
Wind 6 kt uit het noordoosten
Zicht: 6000 m
Verspreide wolken op 1000 ft
Verspreide wolken op 2000 ft, Cumulonimbus.
Tijdelijke
van 22 om 18 UTC tot 23 om 04 UTC
Zicht: 2100 m
nevel, rook
Wijzigt naar
van 23 om 08 UTC tot 23 om 09 UTC
Wind 6 kt uit het zuidoosten met uitschieters tot 16 kt

TAF: UKOO 221705Z 2218/2318 04003MPS 6000 SCT010 SCT020CB TX26/2312Z TN14/2302Z TEMPO 2218/2304 2100 BR FU BECMG 2308/2309 14003G08MPS

Waarnemingen en weersverwachtingen van meer dan 4000 vliegvelden (METAR en TAF).

De beschikbare stations zijn de gele en rode punten op de kaart.

Ga met uw muis naar het station om de naam te zien.

Klik dan om waarnemingen en weersverwachtingen te zien.

kaart wijzigen: klik op de groene knoppen met een zwart kruis om in te zoomen, op de groene knop met een streepje om uit te zoomen of op de groene pijlen voor aangrenzende kaarten.


METAR-TAF: